sensor_id;sensor_type;location;lat;lon;timestamp;P1;durP1;ratioP1;P2;durP2;ratioP2
3141;SDS011;1581;51.568;6.998;2023-09-07T00:01:19;7.47;;;4.38;;
3141;SDS011;1581;51.568;6.998;2023-09-07T00:03:47;7.47;;;5.28;;
3141;SDS011;1581;51.568;6.998;2023-09-07T00:06:15;6.30;;;4.35;;
3141;SDS011;1581;51.568;6.998;2023-09-07T00:08:43;5.15;;;4.65;;
3141;SDS011;1581;51.568;6.998;2023-09-07T00:11:11;6.43;;;3.95;;
3141;SDS011;1581;51.568;6.998;2023-09-07T00:13:39;6.65;;;5.07;;
3141;SDS011;1581;51.568;6.998;2023-09-07T00:16:08;8.68;;;4.05;;
3141;SDS011;1581;51.568;6.998;2023-09-07T00:18:36;5.25;;;4.18;;
3141;SDS011;1581;51.568;6.998;2023-09-07T00:21:03;5.18;;;3.80;;
3141;SDS011;1581;51.568;6.998;2023-09-07T00:23:31;5.30;;;4.55;;
3141;SDS011;1581;51.568;6.998;2023-09-07T00:25:59;4.75;;;3.88;;
3141;SDS011;1581;51.568;6.998;2023-09-07T00:28:27;8.38;;;4.20;;
3141;SDS011;1581;51.568;6.998;2023-09-07T00:30:55;9.15;;;4.82;;
3141;SDS011;1581;51.568;6.998;2023-09-07T00:33:24;8.18;;;4.85;;
3141;SDS011;1581;51.568;6.998;2023-09-07T00:35:52;7.68;;;4.65;;
3141;SDS011;1581;51.568;6.998;2023-09-07T00:38:21;6.95;;;4.63;;
3141;SDS011;1581;51.568;6.998;2023-09-07T00:40:49;6.13;;;4.80;;
3141;SDS011;1581;51.568;6.998;2023-09-07T00:43:16;4.75;;;4.25;;
3141;SDS011;1581;51.568;6.998;2023-09-07T00:45:44;13.35;;;5.30;;
3141;SDS011;1581;51.568;6.998;2023-09-07T00:48:12;7.95;;;5.25;;
3141;SDS011;1581;51.568;6.998;2023-09-07T00:50:43;9.45;;;5.30;;
3141;SDS011;1581;51.568;6.998;2023-09-07T00:53:11;6.40;;;4.72;;
3141;SDS011;1581;51.568;6.998;2023-09-07T00:55:38;7.05;;;4.80;;
3141;SDS011;1581;51.568;6.998;2023-09-07T00:58:06;5.18;;;4.32;;
3141;SDS011;1581;51.568;6.998;2023-09-07T01:00:36;6.30;;;4.28;;
3141;SDS011;1581;51.568;6.998;2023-09-07T01:03:04;9.02;;;4.95;;
3141;SDS011;1581;51.568;6.998;2023-09-07T01:05:34;8.10;;;5.27;;
3141;SDS011;1581;51.568;6.998;2023-09-07T01:08:11;6.00;;;5.35;;
3141;SDS011;1581;51.568;6.998;2023-09-07T01:10:45;6.28;;;5.20;;
3141;SDS011;1581;51.568;6.998;2023-09-07T01:13:13;9.33;;;6.37;;
3141;SDS011;1581;51.568;6.998;2023-09-07T01:15:40;8.30;;;4.88;;
3141;SDS011;1581;51.568;6.998;2023-09-07T01:18:08;7.78;;;5.57;;
3141;SDS011;1581;51.568;6.998;2023-09-07T01:20:37;6.60;;;5.50;;
3141;SDS011;1581;51.568;6.998;2023-09-07T01:23:08;5.93;;;4.90;;
3141;SDS011;1581;51.568;6.998;2023-09-07T01:25:38;8.57;;;5.60;;
3141;SDS011;1581;51.568;6.998;2023-09-07T01:28:07;6.93;;;5.30;;
3141;SDS011;1581;51.568;6.998;2023-09-07T01:30:40;8.60;;;5.60;;
3141;SDS011;1581;51.568;6.998;2023-09-07T01:33:08;10.00;;;5.50;;
3141;SDS011;1581;51.568;6.998;2023-09-07T01:35:36;7.17;;;5.70;;
3141;SDS011;1581;51.568;6.998;2023-09-07T01:38:05;8.00;;;5.87;;
3141;SDS011;1581;51.568;6.998;2023-09-07T01:40:34;13.43;;;6.23;;
3141;SDS011;1581;51.568;6.998;2023-09-07T01:43:02;6.57;;;5.30;;
3141;SDS011;1581;51.568;6.998;2023-09-07T01:45:30;8.73;;;5.10;;
3141;SDS011;1581;51.568;6.998;2023-09-07T01:47:58;6.43;;;4.80;;
3141;SDS011;1581;51.568;6.998;2023-09-07T01:50:26;6.27;;;5.57;;
3141;SDS011;1581;51.568;6.998;2023-09-07T01:52:54;9.77;;;6.10;;
3141;SDS011;1581;51.568;6.998;2023-09-07T01:55:22;7.30;;;5.67;;
3141;SDS011;1581;51.568;6.998;2023-09-07T01:57:52;7.80;;;5.27;;
3141;SDS011;1581;51.568;6.998;2023-09-07T02:00:19;9.17;;;5.50;;
3141;SDS011;1581;51.568;6.998;2023-09-07T02:02:47;9.32;;;5.75;;
3141;SDS011;1581;51.568;6.998;2023-09-07T02:05:15;14.57;;;5.47;;
3141;SDS011;1581;51.568;6.998;2023-09-07T02:07:43;9.27;;;5.33;;
3141;SDS011;1581;51.568;6.998;2023-09-07T02:10:12;11.15;;;5.57;;
3141;SDS011;1581;51.568;6.998;2023-09-07T02:12:40;11.93;;;5.88;;
3141;SDS011;1581;51.568;6.998;2023-09-07T02:15:09;10.10;;;6.03;;
3141;SDS011;1581;51.568;6.998;2023-09-07T02:17:37;10.73;;;5.90;;
3141;SDS011;1581;51.568;6.998;2023-09-07T02:20:05;11.02;;;5.45;;
3141;SDS011;1581;51.568;6.998;2023-09-07T02:22:35;7.17;;;5.03;;
3141;SDS011;1581;51.568;6.998;2023-09-07T02:25:03;8.60;;;5.70;;
3141;SDS011;1581;51.568;6.998;2023-09-07T02:27:31;8.60;;;6.22;;
3141;SDS011;1581;51.568;6.998;2023-09-07T02:29:59;7.53;;;5.33;;
3141;SDS011;1581;51.568;6.998;2023-09-07T02:32:29;8.50;;;5.80;;
3141;SDS011;1581;51.568;6.998;2023-09-07T02:34:57;7.97;;;5.40;;
3141;SDS011;1581;51.568;6.998;2023-09-07T02:37:25;8.63;;;5.40;;
3141;SDS011;1581;51.568;6.998;2023-09-07T02:39:52;8.50;;;5.63;;
3141;SDS011;1581;51.568;6.998;2023-09-07T02:42:20;13.00;;;6.70;;
3141;SDS011;1581;51.568;6.998;2023-09-07T02:44:49;9.53;;;6.10;;
3141;SDS011;1581;51.568;6.998;2023-09-07T02:47:17;7.07;;;5.20;;
3141;SDS011;1581;51.568;6.998;2023-09-07T02:49:46;10.07;;;5.27;;
3141;SDS011;1581;51.568;6.998;2023-09-07T02:52:13;12.30;;;5.83;;
3141;SDS011;1581;51.568;6.998;2023-09-07T02:54:41;15.63;;;6.00;;
3141;SDS011;1581;51.568;6.998;2023-09-07T02:57:09;8.30;;;6.00;;
3141;SDS011;1581;51.568;6.998;2023-09-07T02:59:37;9.07;;;5.03;;
3141;SDS011;1581;51.568;6.998;2023-09-07T03:02:05;6.70;;;5.17;;
3141;SDS011;1581;51.568;6.998;2023-09-07T03:04:32;11.27;;;6.07;;
3141;SDS011;1581;51.568;6.998;2023-09-07T03:07:01;13.70;;;5.30;;
3141;SDS011;1581;51.568;6.998;2023-09-07T03:09:29;6.53;;;5.53;;
3141;SDS011;1581;51.568;6.998;2023-09-07T03:11:57;13.73;;;5.80;;
3141;SDS011;1581;51.568;6.998;2023-09-07T03:14:24;8.97;;;5.70;;
3141;SDS011;1581;51.568;6.998;2023-09-07T03:16:52;13.33;;;5.80;;
3141;SDS011;1581;51.568;6.998;2023-09-07T03:19:20;14.43;;;6.37;;
3141;SDS011;1581;51.568;6.998;2023-09-07T03:21:48;8.10;;;5.00;;
3141;SDS011;1581;51.568;6.998;2023-09-07T03:24:16;6.57;;;5.20;;
3141;SDS011;1581;51.568;6.998;2023-09-07T03:26:45;7.63;;;5.67;;
3141;SDS011;1581;51.568;6.998;2023-09-07T03:29:13;8.00;;;5.27;;
3141;SDS011;1581;51.568;6.998;2023-09-07T03:31:40;6.13;;;5.17;;
3141;SDS011;1581;51.568;6.998;2023-09-07T03:34:08;8.90;;;5.17;;
3141;SDS011;1581;51.568;6.998;2023-09-07T03:36:36;7.40;;;5.67;;
3141;SDS011;1581;51.568;6.998;2023-09-07T03:39:03;6.80;;;5.30;;
3141;SDS011;1581;51.568;6.998;2023-09-07T03:41:34;10.20;;;5.40;;
3141;SDS011;1581;51.568;6.998;2023-09-07T03:44:01;10.10;;;5.87;;
3141;SDS011;1581;51.568;6.998;2023-09-07T03:46:29;10.67;;;5.00;;
3141;SDS011;1581;51.568;6.998;2023-09-07T03:48:57;6.70;;;5.33;;
3141;SDS011;1581;51.568;6.998;2023-09-07T03:51:24;12.77;;;4.97;;
3141;SDS011;1581;51.568;6.998;2023-09-07T03:53:52;8.60;;;6.23;;
3141;SDS011;1581;51.568;6.998;2023-09-07T03:56:19;6.70;;;4.77;;
3141;SDS011;1581;51.568;6.998;2023-09-07T03:58:48;6.63;;;5.17;;
3141;SDS011;1581;51.568;6.998;2023-09-07T04:01:16;6.03;;;4.43;;
3141;SDS011;1581;51.568;6.998;2023-09-07T04:03:44;9.03;;;5.13;;
3141;SDS011;1581;51.568;6.998;2023-09-07T04:06:11;6.10;;;4.33;;
3141;SDS011;1581;51.568;6.998;2023-09-07T04:08:39;13.13;;;5.90;;
3141;SDS011;1581;51.568;6.998;2023-09-07T04:11:06;12.83;;;5.27;;
3141;SDS011;1581;51.568;6.998;2023-09-07T04:13:35;8.30;;;5.77;;
3141;SDS011;1581;51.568;6.998;2023-09-07T04:16:04;7.57;;;5.30;;
3141;SDS011;1581;51.568;6.998;2023-09-07T04:18:31;9.10;;;5.00;;
3141;SDS011;1581;51.568;6.998;2023-09-07T04:21:04;7.57;;;4.77;;
3141;SDS011;1581;51.568;6.998;2023-09-07T04:23:32;12.07;;;5.60;;
3141;SDS011;1581;51.568;6.998;2023-09-07T04:26:05;6.80;;;4.50;;
3141;SDS011;1581;51.568;6.998;2023-09-07T04:28:34;7.63;;;4.47;;
3141;SDS011;1581;51.568;6.998;2023-09-07T04:31:01;8.67;;;4.70;;
3141;SDS011;1581;51.568;6.998;2023-09-07T04:33:33;13.27;;;4.83;;
3141;SDS011;1581;51.568;6.998;2023-09-07T04:36:06;8.70;;;5.50;;
3141;SDS011;1581;51.568;6.998;2023-09-07T04:38:35;6.00;;;4.77;;
3141;SDS011;1581;51.568;6.998;2023-09-07T04:41:06;11.53;;;4.83;;
3141;SDS011;1581;51.568;6.998;2023-09-07T04:43:34;8.40;;;5.40;;
3141;SDS011;1581;51.568;6.998;2023-09-07T04:46:04;5.90;;;4.40;;
3141;SDS011;1581;51.568;6.998;2023-09-07T04:48:31;10.13;;;5.90;;
3141;SDS011;1581;51.568;6.998;2023-09-07T04:50:59;7.10;;;5.00;;
3141;SDS011;1581;51.568;6.998;2023-09-07T04:53:27;7.07;;;5.13;;
3141;SDS011;1581;51.568;6.998;2023-09-07T04:55:56;7.70;;;4.43;;
3141;SDS011;1581;51.568;6.998;2023-09-07T04:58:23;7.63;;;5.20;;
3141;SDS011;1581;51.568;6.998;2023-09-07T05:00:51;9.73;;;4.80;;
3141;SDS011;1581;51.568;6.998;2023-09-07T05:03:20;6.90;;;4.30;;
3141;SDS011;1581;51.568;6.998;2023-09-07T05:05:50;8.67;;;4.47;;
3141;SDS011;1581;51.568;6.998;2023-09-07T05:08:20;9.10;;;4.00;;
3141;SDS011;1581;51.568;6.998;2023-09-07T05:10:48;16.80;;;5.57;;
3141;SDS011;1581;51.568;6.998;2023-09-07T05:13:15;7.17;;;4.17;;
3141;SDS011;1581;51.568;6.998;2023-09-07T05:15:46;9.60;;;5.27;;
3141;SDS011;1581;51.568;6.998;2023-09-07T05:18:15;9.50;;;4.70;;
3141;SDS011;1581;51.568;6.998;2023-09-07T05:20:44;6.37;;;5.00;;
3141;SDS011;1581;51.568;6.998;2023-09-07T05:23:13;7.80;;;4.40;;
3141;SDS011;1581;51.568;6.998;2023-09-07T05:25:43;4.43;;;4.03;;
3141;SDS011;1581;51.568;6.998;2023-09-07T05:28:12;19.60;;;4.57;;
3141;SDS011;1581;51.568;6.998;2023-09-07T05:30:41;5.40;;;3.90;;
3141;SDS011;1581;51.568;6.998;2023-09-07T05:33:09;18.50;;;5.67;;
3141;SDS011;1581;51.568;6.998;2023-09-07T05:35:37;6.77;;;4.83;;
3141;SDS011;1581;51.568;6.998;2023-09-07T05:38:08;6.50;;;4.50;;
3141;SDS011;1581;51.568;6.998;2023-09-07T05:40:36;16.97;;;4.27;;
3141;SDS011;1581;51.568;6.998;2023-09-07T05:43:05;8.17;;;5.27;;
3141;SDS011;1581;51.568;6.998;2023-09-07T05:45:33;7.70;;;4.67;;
3141;SDS011;1581;51.568;6.998;2023-09-07T05:48:03;5.50;;;4.40;;
3141;SDS011;1581;51.568;6.998;2023-09-07T05:50:32;11.63;;;3.83;;
3141;SDS011;1581;51.568;6.998;2023-09-07T05:53:01;11.90;;;4.10;;
3141;SDS011;1581;51.568;6.998;2023-09-07T05:55:31;5.10;;;3.90;;
3141;SDS011;1581;51.568;6.998;2023-09-07T05:57:58;6.43;;;4.87;;
3141;SDS011;1581;51.568;6.998;2023-09-07T06:00:32;11.23;;;4.53;;
3141;SDS011;1581;51.568;6.998;2023-09-07T06:03:01;9.57;;;5.70;;
3141;SDS011;1581;51.568;6.998;2023-09-07T06:05:29;9.63;;;4.40;;
3141;SDS011;1581;51.568;6.998;2023-09-07T06:07:57;7.97;;;4.53;;
3141;SDS011;1581;51.568;6.998;2023-09-07T06:10:24;5.43;;;3.93;;
3141;SDS011;1581;51.568;6.998;2023-09-07T06:12:55;7.80;;;4.30;;
3141;SDS011;1581;51.568;6.998;2023-09-07T06:15:23;4.80;;;3.97;;
3141;SDS011;1581;51.568;6.998;2023-09-07T06:17:51;7.50;;;4.20;;
3141;SDS011;1581;51.568;6.998;2023-09-07T06:20:19;6.57;;;4.40;;
3141;SDS011;1581;51.568;6.998;2023-09-07T06:22:46;5.00;;;3.97;;
3141;SDS011;1581;51.568;6.998;2023-09-07T06:25:15;5.80;;;4.85;;
3141;SDS011;1581;51.568;6.998;2023-09-07T06:27:42;4.57;;;4.17;;
3141;SDS011;1581;51.568;6.998;2023-09-07T06:30:11;6.03;;;3.83;;
3141;SDS011;1581;51.568;6.998;2023-09-07T06:32:39;7.10;;;3.92;;
3141;SDS011;1581;51.568;6.998;2023-09-07T06:35:07;6.68;;;4.72;;
3141;SDS011;1581;51.568;6.998;2023-09-07T06:37:35;7.80;;;3.65;;
3141;SDS011;1581;51.568;6.998;2023-09-07T06:40:06;4.32;;;3.88;;
3141;SDS011;1581;51.568;6.998;2023-09-07T06:42:36;8.13;;;4.10;;
3141;SDS011;1581;51.568;6.998;2023-09-07T06:45:04;5.07;;;3.77;;
3141;SDS011;1581;51.568;6.998;2023-09-07T06:47:34;5.50;;;3.78;;
3141;SDS011;1581;51.568;6.998;2023-09-07T06:50:02;6.10;;;4.30;;
3141;SDS011;1581;51.568;6.998;2023-09-07T06:52:31;6.70;;;3.78;;
3141;SDS011;1581;51.568;6.998;2023-09-07T06:54:58;13.52;;;3.90;;
3141;SDS011;1581;51.568;6.998;2023-09-07T06:57:26;7.95;;;3.65;;
3141;SDS011;1581;51.568;6.998;2023-09-07T06:59:54;4.72;;;3.42;;
3141;SDS011;1581;51.568;6.998;2023-09-07T07:02:21;7.25;;;3.90;;
3141;SDS011;1581;51.568;6.998;2023-09-07T07:04:50;10.45;;;3.97;;
3141;SDS011;1581;51.568;6.998;2023-09-07T07:07:18;3.63;;;3.30;;
3141;SDS011;1581;51.568;6.998;2023-09-07T07:09:46;10.52;;;3.97;;
3141;SDS011;1581;51.568;6.998;2023-09-07T07:12:13;4.80;;;4.05;;
3141;SDS011;1581;51.568;6.998;2023-09-07T07:14:41;5.38;;;3.55;;
3141;SDS011;1581;51.568;6.998;2023-09-07T07:17:08;11.20;;;4.40;;
3141;SDS011;1581;51.568;6.998;2023-09-07T07:19:36;4.00;;;3.60;;
3141;SDS011;1581;51.568;6.998;2023-09-07T07:22:05;5.57;;;3.42;;
3141;SDS011;1581;51.568;6.998;2023-09-07T07:24:34;3.90;;;3.33;;
3141;SDS011;1581;51.568;6.998;2023-09-07T07:27:01;4.18;;;3.58;;
3141;SDS011;1581;51.568;6.998;2023-09-07T07:29:29;4.10;;;3.58;;
3141;SDS011;1581;51.568;6.998;2023-09-07T07:31:57;7.20;;;3.70;;
3141;SDS011;1581;51.568;6.998;2023-09-07T07:34:24;5.82;;;3.55;;
3141;SDS011;1581;51.568;6.998;2023-09-07T07:36:52;6.60;;;3.97;;
3141;SDS011;1581;51.568;6.998;2023-09-07T07:39:21;4.72;;;3.75;;
3141;SDS011;1581;51.568;6.998;2023-09-07T07:41:49;5.72;;;3.45;;
3141;SDS011;1581;51.568;6.998;2023-09-07T07:44:17;4.80;;;3.60;;
3141;SDS011;1581;51.568;6.998;2023-09-07T07:46:47;8.98;;;3.97;;
3141;SDS011;1581;51.568;6.998;2023-09-07T07:49:14;9.52;;;3.58;;
3141;SDS011;1581;51.568;6.998;2023-09-07T07:51:42;4.68;;;3.67;;
3141;SDS011;1581;51.568;6.998;2023-09-07T07:54:10;5.85;;;3.83;;
3141;SDS011;1581;51.568;6.998;2023-09-07T07:56:39;4.43;;;3.22;;
3141;SDS011;1581;51.568;6.998;2023-09-07T07:59:07;5.47;;;3.30;;
3141;SDS011;1581;51.568;6.998;2023-09-07T08:01:34;4.05;;;2.90;;
3141;SDS011;1581;51.568;6.998;2023-09-07T08:04:03;8.02;;;3.67;;
3141;SDS011;1581;51.568;6.998;2023-09-07T08:06:32;4.35;;;3.95;;
3141;SDS011;1581;51.568;6.998;2023-09-07T08:08:59;6.00;;;3.15;;
3141;SDS011;1581;51.568;6.998;2023-09-07T08:11:28;4.47;;;3.30;;
3141;SDS011;1581;51.568;6.998;2023-09-07T08:13:57;6.20;;;3.00;;
3141;SDS011;1581;51.568;6.998;2023-09-07T08:16:25;6.97;;;3.03;;
3141;SDS011;1581;51.568;6.998;2023-09-07T08:18:58;6.18;;;3.28;;
3141;SDS011;1581;51.568;6.998;2023-09-07T08:21:25;5.20;;;3.33;;
3141;SDS011;1581;51.568;6.998;2023-09-07T08:23:53;3.40;;;3.10;;
3141;SDS011;1581;51.568;6.998;2023-09-07T08:26:21;4.88;;;3.67;;
3141;SDS011;1581;51.568;6.998;2023-09-07T08:28:48;6.43;;;3.33;;
3141;SDS011;1581;51.568;6.998;2023-09-07T08:31:17;4.35;;;3.63;;
3141;SDS011;1581;51.568;6.998;2023-09-07T08:33:47;5.53;;;3.45;;
3141;SDS011;1581;51.568;6.998;2023-09-07T08:36:15;7.05;;;3.20;;
3141;SDS011;1581;51.568;6.998;2023-09-07T08:38:43;11.52;;;3.53;;
3141;SDS011;1581;51.568;6.998;2023-09-07T08:41:11;4.90;;;3.67;;
3141;SDS011;1581;51.568;6.998;2023-09-07T08:43:43;7.53;;;3.72;;
3141;SDS011;1581;51.568;6.998;2023-09-07T08:46:13;4.32;;;3.13;;
3141;SDS011;1581;51.568;6.998;2023-09-07T08:48:46;9.95;;;3.33;;
3141;SDS011;1581;51.568;6.998;2023-09-07T08:51:15;4.35;;;3.60;;
3141;SDS011;1581;51.568;6.998;2023-09-07T08:53:46;4.72;;;3.42;;
3141;SDS011;1581;51.568;6.998;2023-09-07T08:56:14;4.05;;;3.45;;
3141;SDS011;1581;51.568;6.998;2023-09-07T08:58:43;9.25;;;3.90;;
3141;SDS011;1581;51.568;6.998;2023-09-07T09:01:13;5.68;;;2.97;;
3141;SDS011;1581;51.568;6.998;2023-09-07T09:03:41;5.38;;;3.58;;
3141;SDS011;1581;51.568;6.998;2023-09-07T09:06:10;5.65;;;3.65;;
3141;SDS011;1581;51.568;6.998;2023-09-07T09:08:43;9.05;;;3.55;;
3141;SDS011;1581;51.568;6.998;2023-09-07T09:11:11;4.70;;;3.10;;
3141;SDS011;1581;51.568;6.998;2023-09-07T09:13:39;3.95;;;3.60;;
3141;SDS011;1581;51.568;6.998;2023-09-07T09:16:07;11.55;;;3.28;;
3141;SDS011;1581;51.568;6.998;2023-09-07T09:18:35;3.92;;;3.35;;
3141;SDS011;1581;51.568;6.998;2023-09-07T09:21:04;8.13;;;3.60;;
3141;SDS011;1581;51.568;6.998;2023-09-07T09:23:34;6.03;;;3.38;;
3141;SDS011;1581;51.568;6.998;2023-09-07T09:26:03;5.13;;;3.58;;
3141;SDS011;1581;51.568;6.998;2023-09-07T09:28:31;8.48;;;3.53;;
3141;SDS011;1581;51.568;6.998;2023-09-07T09:30:59;3.85;;;3.00;;
3141;SDS011;1581;51.568;6.998;2023-09-07T09:33:30;6.22;;;3.88;;
3141;SDS011;1581;51.568;6.998;2023-09-07T09:35:58;9.40;;;3.60;;
3141;SDS011;1581;51.568;6.998;2023-09-07T09:38:27;3.67;;;2.80;;
3141;SDS011;1581;51.568;6.998;2023-09-07T09:40:59;7.80;;;3.30;;
3141;SDS011;1581;51.568;6.998;2023-09-07T09:43:28;7.45;;;3.70;;
3141;SDS011;1581;51.568;6.998;2023-09-07T09:45:56;4.55;;;3.45;;
3141;SDS011;1581;51.568;6.998;2023-09-07T09:48:26;5.63;;;3.28;;
3141;SDS011;1581;51.568;6.998;2023-09-07T09:50:55;3.78;;;3.20;;
3141;SDS011;1581;51.568;6.998;2023-09-07T09:53:23;7.07;;;4.10;;
3141;SDS011;1581;51.568;6.998;2023-09-07T09:55:52;7.57;;;3.28;;
3141;SDS011;1581;51.568;6.998;2023-09-07T09:58:21;3.50;;;3.17;;
3141;SDS011;1581;51.568;6.998;2023-09-07T10:00:49;5.32;;;2.97;;
3141;SDS011;1581;51.568;6.998;2023-09-07T10:03:23;5.88;;;3.35;;
3141;SDS011;1581;51.568;6.998;2023-09-07T10:05:57;4.40;;;2.83;;
3141;SDS011;1581;51.568;6.998;2023-09-07T10:08:34;3.83;;;3.25;;
3141;SDS011;1581;51.568;6.998;2023-09-07T10:11:06;7.60;;;3.78;;
3141;SDS011;1581;51.568;6.998;2023-09-07T10:13:37;5.20;;;3.65;;
3141;SDS011;1581;51.568;6.998;2023-09-07T10:16:05;5.57;;;3.53;;
3141;SDS011;1581;51.568;6.998;2023-09-07T10:18:34;3.55;;;3.17;;
3141;SDS011;1581;51.568;6.998;2023-09-07T10:21:02;5.00;;;3.40;;
3141;SDS011;1581;51.568;6.998;2023-09-07T10:23:39;4.40;;;3.05;;
3141;SDS011;1581;51.568;6.998;2023-09-07T10:26:11;3.35;;;2.65;;
3141;SDS011;1581;51.568;6.998;2023-09-07T10:28:47;5.22;;;2.92;;
3141;SDS011;1581;51.568;6.998;2023-09-07T10:31:28;4.05;;;2.60;;
3141;SDS011;1581;51.568;6.998;2023-09-07T10:33:56;3.95;;;2.72;;
3141;SDS011;1581;51.568;6.998;2023-09-07T10:36:36;3.47;;;2.70;;
3141;SDS011;1581;51.568;6.998;2023-09-07T10:39:04;3.40;;;3.00;;
3141;SDS011;1581;51.568;6.998;2023-09-07T10:41:40;3.13;;;2.83;;
3141;SDS011;1581;51.568;6.998;2023-09-07T10:44:09;4.43;;;3.00;;
3141;SDS011;1581;51.568;6.998;2023-09-07T10:46:37;4.72;;;3.15;;
3141;SDS011;1581;51.568;6.998;2023-09-07T10:49:06;6.30;;;2.67;;
3141;SDS011;1581;51.568;6.998;2023-09-07T10:51:43;5.47;;;3.40;;
3141;SDS011;1581;51.568;6.998;2023-09-07T10:54:13;8.68;;;2.72;;
3141;SDS011;1581;51.568;6.998;2023-09-07T10:56:43;3.22;;;2.42;;
3141;SDS011;1581;51.568;6.998;2023-09-07T10:59:19;6.82;;;2.92;;
3141;SDS011;1581;51.568;6.998;2023-09-07T11:01:46;3.28;;;2.67;;
3141;SDS011;1581;51.568;6.998;2023-09-07T11:04:15;3.03;;;2.72;;
3141;SDS011;1581;51.568;6.998;2023-09-07T11:06:46;3.85;;;2.83;;
3141;SDS011;1581;51.568;6.998;2023-09-07T11:09:17;3.65;;;3.25;;
3141;SDS011;1581;51.568;6.998;2023-09-07T11:11:51;4.13;;;2.80;;
3141;SDS011;1581;51.568;6.998;2023-09-07T11:14:28;4.25;;;2.90;;
3141;SDS011;1581;51.568;6.998;2023-09-07T11:16:57;3.97;;;3.20;;
3141;SDS011;1581;51.568;6.998;2023-09-07T11:19:35;3.33;;;2.72;;
3141;SDS011;1581;51.568;6.998;2023-09-07T11:22:09;3.67;;;3.17;;
3141;SDS011;1581;51.568;6.998;2023-09-07T11:24:37;9.23;;;3.60;;
3141;SDS011;1581;51.568;6.998;2023-09-07T11:27:08;5.00;;;2.83;;
3141;SDS011;1581;51.568;6.998;2023-09-07T11:29:38;6.22;;;3.13;;
3141;SDS011;1581;51.568;6.998;2023-09-07T11:32:07;5.57;;;3.00;;
3141;SDS011;1581;51.568;6.998;2023-09-07T11:34:46;3.92;;;3.25;;
3141;SDS011;1581;51.568;6.998;2023-09-07T11:37:23;3.30;;;3.00;;
3141;SDS011;1581;51.568;6.998;2023-09-07T11:39:52;3.50;;;3.00;;
3141;SDS011;1581;51.568;6.998;2023-09-07T11:42:19;4.75;;;2.75;;
3141;SDS011;1581;51.568;6.998;2023-09-07T11:44:49;3.47;;;3.17;;
3141;SDS011;1581;51.568;6.998;2023-09-07T11:47:16;6.88;;;2.60;;
3141;SDS011;1581;51.568;6.998;2023-09-07T11:49:44;2.78;;;2.58;;
3141;SDS011;1581;51.568;6.998;2023-09-07T11:52:12;5.50;;;3.33;;
3141;SDS011;1581;51.568;6.998;2023-09-07T11:54:39;4.72;;;2.90;;
3141;SDS011;1581;51.568;6.998;2023-09-07T11:57:07;11.48;;;3.38;;
3141;SDS011;1581;51.568;6.998;2023-09-07T11:59:34;3.90;;;2.90;;
3141;SDS011;1581;51.568;6.998;2023-09-07T12:02:03;2.95;;;2.75;;
3141;SDS011;1581;51.568;6.998;2023-09-07T12:04:31;4.57;;;2.88;;
3141;SDS011;1581;51.568;6.998;2023-09-07T12:07:01;3.65;;;3.05;;
3141;SDS011;1581;51.568;6.998;2023-09-07T12:09:29;3.38;;;3.08;;
3141;SDS011;1581;51.568;6.998;2023-09-07T12:11:57;3.17;;;2.97;;
3141;SDS011;1581;51.568;6.998;2023-09-07T12:14:25;7.78;;;2.90;;
3141;SDS011;1581;51.568;6.998;2023-09-07T12:16:52;3.42;;;3.13;;
3141;SDS011;1581;51.568;6.998;2023-09-07T12:19:22;2.97;;;2.67;;
3141;SDS011;1581;51.568;6.998;2023-09-07T12:21:50;4.30;;;3.20;;
3141;SDS011;1581;51.568;6.998;2023-09-07T12:24:18;3.22;;;2.92;;
3141;SDS011;1581;51.568;6.998;2023-09-07T12:26:45;4.28;;;2.70;;
3141;SDS011;1581;51.568;6.998;2023-09-07T12:29:13;2.47;;;2.28;;
3141;SDS011;1581;51.568;6.998;2023-09-07T12:31:46;3.55;;;2.88;;
3141;SDS011;1581;51.568;6.998;2023-09-07T12:34:17;2.88;;;2.67;;
3141;SDS011;1581;51.568;6.998;2023-09-07T12:36:51;4.32;;;3.53;;
3141;SDS011;1581;51.568;6.998;2023-09-07T12:39:23;4.25;;;2.45;;
3141;SDS011;1581;51.568;6.998;2023-09-07T12:41:50;4.10;;;3.05;;
3141;SDS011;1581;51.568;6.998;2023-09-07T12:44:18;6.03;;;2.70;;
3141;SDS011;1581;51.568;6.998;2023-09-07T12:46:46;3.28;;;2.97;;
3141;SDS011;1581;51.568;6.998;2023-09-07T12:49:13;2.42;;;2.25;;
3141;SDS011;1581;51.568;6.998;2023-09-07T12:51:41;5.30;;;2.83;;
3141;SDS011;1581;51.568;6.998;2023-09-07T12:54:10;9.13;;;2.70;;
3141;SDS011;1581;51.568;6.998;2023-09-07T12:56:40;3.30;;;2.33;;
3141;SDS011;1581;51.568;6.998;2023-09-07T12:59:12;2.85;;;2.65;;
3141;SDS011;1581;51.568;6.998;2023-09-07T13:01:41;4.25;;;3.33;;
3141;SDS011;1581;51.568;6.998;2023-09-07T13:04:08;3.20;;;2.80;;
3141;SDS011;1581;51.568;6.998;2023-09-07T13:06:37;4.53;;;3.25;;
3141;SDS011;1581;51.568;6.998;2023-09-07T13:09:05;3.70;;;2.75;;
3141;SDS011;1581;51.568;6.998;2023-09-07T13:11:39;3.50;;;2.85;;
3141;SDS011;1581;51.568;6.998;2023-09-07T13:14:11;3.13;;;2.92;;
3141;SDS011;1581;51.568;6.998;2023-09-07T13:16:40;3.40;;;3.08;;
3141;SDS011;1581;51.568;6.998;2023-09-07T13:19:09;4.18;;;3.10;;
3141;SDS011;1581;51.568;6.998;2023-09-07T13:21:38;3.38;;;2.97;;
3141;SDS011;1581;51.568;6.998;2023-09-07T13:24:06;3.50;;;3.20;;
3141;SDS011;1581;51.568;6.998;2023-09-07T13:26:36;3.30;;;3.00;;
3141;SDS011;1581;51.568;6.998;2023-09-07T13:29:08;5.18;;;2.88;;
3141;SDS011;1581;51.568;6.998;2023-09-07T13:31:37;4.28;;;3.05;;
3141;SDS011;1581;51.568;6.998;2023-09-07T13:34:05;6.47;;;2.97;;
3141;SDS011;1581;51.568;6.998;2023-09-07T13:36:33;2.60;;;2.45;;
3141;SDS011;1581;51.568;6.998;2023-09-07T13:39:00;3.13;;;2.92;;
3141;SDS011;1581;51.568;6.998;2023-09-07T13:41:28;5.45;;;3.00;;
3141;SDS011;1581;51.568;6.998;2023-09-07T13:43:57;2.63;;;2.50;;
3141;SDS011;1581;51.568;6.998;2023-09-07T13:46:25;2.47;;;2.38;;
3141;SDS011;1581;51.568;6.998;2023-09-07T13:48:53;5.32;;;2.30;;
3141;SDS011;1581;51.568;6.998;2023-09-07T13:51:21;2.40;;;2.20;;
3141;SDS011;1581;51.568;6.998;2023-09-07T13:53:49;2.75;;;2.55;;
3141;SDS011;1581;51.568;6.998;2023-09-07T13:56:17;4.18;;;2.40;;
3141;SDS011;1581;51.568;6.998;2023-09-07T13:58:45;2.55;;;2.45;;
3141;SDS011;1581;51.568;6.998;2023-09-07T14:01:14;2.78;;;2.67;;
3141;SDS011;1581;51.568;6.998;2023-09-07T14:03:42;4.13;;;2.72;;
3141;SDS011;1581;51.568;6.998;2023-09-07T14:06:10;3.13;;;2.92;;
3141;SDS011;1581;51.568;6.998;2023-09-07T14:08:38;2.50;;;2.40;;
3141;SDS011;1581;51.568;6.998;2023-09-07T14:11:05;2.80;;;2.60;;
3141;SDS011;1581;51.568;6.998;2023-09-07T14:13:33;2.40;;;2.28;;
3141;SDS011;1581;51.568;6.998;2023-09-07T14:16:01;2.30;;;2.20;;
3141;SDS011;1581;51.568;6.998;2023-09-07T14:18:31;2.67;;;2.47;;
3141;SDS011;1581;51.568;6.998;2023-09-07T14:20:58;2.55;;;2.40;;
3141;SDS011;1581;51.568;6.998;2023-09-07T14:23:29;3.08;;;2.50;;
3141;SDS011;1581;51.568;6.998;2023-09-07T14:25:57;2.53;;;2.38;;
3141;SDS011;1581;51.568;6.998;2023-09-07T14:28:25;4.00;;;2.58;;
3141;SDS011;1581;51.568;6.998;2023-09-07T14:30:56;3.30;;;3.03;;
3141;SDS011;1581;51.568;6.998;2023-09-07T14:33:30;3.80;;;3.60;;
3141;SDS011;1581;51.568;6.998;2023-09-07T14:35:59;2.60;;;2.40;;
3141;SDS011;1581;51.568;6.998;2023-09-07T14:38:27;2.88;;;2.75;;
3141;SDS011;1581;51.568;6.998;2023-09-07T14:40:55;3.25;;;3.05;;
3141;SDS011;1581;51.568;6.998;2023-09-07T14:43:27;3.90;;;2.65;;
3141;SDS011;1581;51.568;6.998;2023-09-07T14:45:55;2.80;;;2.60;;
3141;SDS011;1581;51.568;6.998;2023-09-07T14:48:23;3.35;;;2.78;;
3141;SDS011;1581;51.568;6.998;2023-09-07T14:50:52;3.00;;;2.67;;
3141;SDS011;1581;51.568;6.998;2023-09-07T14:53:19;3.30;;;2.63;;
3141;SDS011;1581;51.568;6.998;2023-09-07T14:55:47;2.67;;;2.58;;
3141;SDS011;1581;51.568;6.998;2023-09-07T14:58:14;2.22;;;2.13;;
3141;SDS011;1581;51.568;6.998;2023-09-07T15:00:42;2.80;;;2.60;;
3141;SDS011;1581;51.568;6.998;2023-09-07T15:03:09;2.88;;;2.65;;
3141;SDS011;1581;51.568;6.998;2023-09-07T15:05:37;2.97;;;2.70;;
3141;SDS011;1581;51.568;6.998;2023-09-07T15:08:07;2.03;;;1.98;;
3141;SDS011;1581;51.568;6.998;2023-09-07T15:10:34;2.42;;;2.33;;
3141;SDS011;1581;51.568;6.998;2023-09-07T15:13:02;2.40;;;2.30;;
3141;SDS011;1581;51.568;6.998;2023-09-07T15:15:32;2.58;;;2.58;;
3141;SDS011;1581;51.568;6.998;2023-09-07T15:18:02;2.67;;;2.53;;
3141;SDS011;1581;51.568;6.998;2023-09-07T15:20:34;3.90;;;3.53;;
3141;SDS011;1581;51.568;6.998;2023-09-07T15:23:02;6.45;;;3.20;;
3141;SDS011;1581;51.568;6.998;2023-09-07T15:25:31;3.78;;;3.67;;